Kenmore, WA (98028)

9:24 AM PST on February 19, 2017 (GMT -0800)
Northshore Utility District | | Change Station
Active Advisory: Small Craft Advisory

Elev 60 ft 47.76 °N, 122.25 °W | Updated 12 minutes ago

Overcast
Overcast
42.9 °F
Feels Like 43 °F
N
0.0
Wind Variable Wind from SE
Gusts 3.0 mph

Today
High -- | Low -- °F
--% Chance of Precip.
Yesterday
High -- | Low -- °F
Precip. -- in
Pressure 29.43 in
Visibility 4.0 miles
Clouds Mostly Cloudy 2100 ft
Mostly Cloudy 2800 ft
Overcast 3500 ft
Windchill 43 °F
Dew Point 40 °F
Humidity 90%
Rainfall 0.05 in
Snow Depth Not available.
7:07 AM 5:38 PM
Last Quarter, 42% visible
SPECI KPAE 191701Z 12012KT 4SM -RA BR BKN021 BKN028 OVC035 05/04 A2943 RMK AO2 P0001 T00500039
Pressure 29.43 in
Visibility 4.0 miles
Clouds Mostly Cloudy 2100 ft
Mostly Cloudy 2800 ft
Overcast 3500 ft
Windchill 43 °F
Dew Point 40 °F
Humidity 90%
Rainfall 0.05 in
Snow Depth Not available.
7:07 AM 5:38 PM
Last Quarter, 42% visible
SPECI KPAE 191701Z 12012KT 4SM -RA BR BKN021 BKN028 OVC035 05/04 A2943 RMK AO2 P0001 T00500039

Get Your Daily Forecast Email!

Thanks for signing up!

Be on the lookout for a verification email in your inbox.

You'll start receiving the daily forecast at 8 AM.

×

10-Day Weather Forecast

Almanac

Astronomy

Feb. 19, 2017 Rise Set
Actual Time
Civil Twilight
Nautical Twilight
Astronomical Twilight
Moon
Length of Visible Light
Length of Day
Tomorrow will be .
, % of the Moon is Illuminated

Today's Extremes

State Highs State Lows

Community

WunderPhotos

Upload Photos

1,962,540 photos uploaded!

WunderBlog® & News

Nearby

Air Quality

  Air Quality AQ Index Pollutant
Not available.

Snow Depth

Station Depth Elevation

Earthquake Activity

City Distance Mag. Time & Date
Minimum magnitude displayed is 2.5.

Coastal Water Temperatures

Place Temperature

Stations

Nearby Weather Stations

Station Location Temp. Windchill Dew Point Humidity Wind Precip. Elev Updated Type
                   

Watches & Warnings

Small Craft Advisory
Issued: 8:52 AM PST Feb. 19, 2017 – National Weather Service

... Small Craft Advisory now in effect until midnight PST tonight...

* winds... south 15 to 25 knots.

* Waves/seas... wind waves 2 to 4 feet.

Precautionary/preparedness actions...

A Small Craft Advisory means that wind speeds of 21 to 33 knots are
expected to produce hazardous wave conditions to small craft.
Inexperienced mariners... especially those operating smaller vessels
should avoid navigating in these conditions.